createdAt,value
2022-09-12T00:01:45.753Z,8.48
2022-09-12T00:06:47.599Z,8.07
2022-09-12T00:11:49.301Z,8.38
2022-09-12T00:16:51.034Z,6.93
2022-09-12T00:21:53.062Z,10.60
2022-09-12T00:26:54.751Z,8.30
2022-09-12T00:31:56.493Z,6.80
2022-09-12T00:36:58.264Z,9.02
2022-09-12T00:42:00.080Z,7.32
2022-09-12T00:47:17.579Z,10.25
2022-09-12T00:52:27.826Z,7.28
2022-09-12T00:57:41.586Z,8.77
2022-09-12T01:02:45.879Z,8.13
2022-09-12T01:07:50.014Z,7.22
2022-09-12T01:12:51.727Z,7.60
2022-09-12T01:18:02.398Z,7.88
2022-09-12T01:23:45.006Z,9.40
2022-09-12T01:28:55.386Z,7.65
2022-09-12T01:34:07.398Z,6.90
2022-09-12T01:39:14.808Z,5.88
2022-09-12T01:44:23.008Z,7.03
2022-09-12T01:49:29.382Z,6.82
2022-09-12T01:54:39.221Z,8.30
2022-09-12T01:59:46.599Z,8.07
2022-09-12T02:05:04.947Z,7.00
2022-09-12T02:10:12.898Z,9.23
2022-09-12T02:15:18.770Z,7.18
2022-09-12T02:20:46.941Z,7.70
2022-09-12T02:25:51.041Z,7.90
2022-09-12T02:31:22.089Z,7.20
2022-09-12T02:36:49.866Z,6.68
2022-09-12T02:41:53.185Z,7.80
2022-09-12T02:47:01.276Z,5.70
2022-09-12T02:52:03.628Z,5.22
2022-09-12T02:57:22.920Z,5.15
2022-09-12T03:02:36.971Z,4.38
2022-09-12T03:07:56.769Z,5.30
2022-09-12T03:13:14.341Z,5.10
2022-09-12T03:18:28.070Z,4.00
2022-09-12T03:23:44.593Z,6.83
2022-09-12T03:28:48.520Z,2.90
2022-09-12T03:33:50.349Z,3.25
2022-09-12T03:38:52.430Z,2.90
2022-09-12T03:43:54.175Z,3.10
2022-09-12T03:48:55.898Z,2.90
2022-09-12T03:53:57.809Z,2.72
2022-09-12T03:58:59.546Z,3.38
2022-09-12T04:04:01.317Z,4.30
2022-09-12T04:09:03.463Z,4.20
2022-09-12T04:14:05.235Z,3.67
2022-09-12T04:19:06.954Z,3.80
2022-09-12T04:24:08.725Z,4.47
2022-09-12T04:29:12.689Z,3.88
2022-09-12T04:34:15.529Z,3.15
2022-09-12T04:39:17.237Z,2.88
2022-09-12T04:44:18.990Z,4.10
2022-09-12T04:49:20.762Z,3.15
2022-09-12T04:54:22.464Z,3.30
2022-09-12T04:59:24.278Z,3.22
2022-09-12T05:04:25.972Z,3.28
2022-09-12T05:09:27.770Z,4.82
2022-09-12T05:14:29.517Z,4.15
2022-09-12T05:19:31.841Z,4.63
2022-09-12T05:24:33.749Z,4.38
2022-09-12T05:29:35.937Z,6.60
2022-09-12T05:34:37.918Z,3.65
2022-09-12T05:39:39.701Z,4.10
2022-09-12T05:44:41.422Z,2.35
2022-09-12T05:49:47.878Z,2.70
2022-09-12T05:54:49.599Z,2.30
2022-09-12T05:59:51.454Z,1.80
2022-09-12T06:04:53.129Z,2.20
2022-09-12T06:09:54.836Z,1.73
2022-09-12T06:14:56.918Z,7.72
2022-09-12T06:19:58.778Z,7.28
2022-09-12T06:25:00.463Z,2.45
2022-09-12T06:30:02.171Z,2.45
2022-09-12T06:35:05.458Z,4.10
2022-09-12T06:40:08.405Z,2.70
2022-09-12T06:45:11.450Z,3.10
2022-09-12T06:50:13.337Z,3.50
2022-09-12T06:55:19.454Z,2.55
2022-09-12T07:00:22.141Z,2.35
2022-09-12T07:05:23.843Z,2.85
2022-09-12T07:10:26.566Z,3.17
2022-09-12T07:15:28.263Z,3.17
2022-09-12T07:20:31.579Z,3.40
2022-09-12T07:25:33.293Z,2.35
2022-09-12T07:30:37.198Z,5.53
2022-09-12T07:35:39.069Z,2.90
2022-09-12T07:40:41.230Z,4.38
2022-09-12T07:45:43.929Z,4.43
2022-09-12T07:50:45.634Z,4.20
2022-09-12T07:55:56.143Z,3.70
2022-09-12T08:01:05.912Z,3.03
2022-09-12T08:06:10.717Z,3.17
2022-09-12T08:11:14.898Z,4.53
2022-09-12T08:16:20.962Z,3.70
2022-09-12T08:21:26.606Z,4.53
2022-09-12T08:26:28.889Z,3.28
2022-09-12T08:31:37.032Z,3.58
2022-09-12T08:36:38.748Z,4.63
2022-09-12T08:41:44.276Z,3.50
2022-09-12T08:46:55.027Z,4.25
2022-09-12T08:51:59.345Z,4.22
2022-09-12T08:57:06.029Z,4.53
2022-09-12T09:02:48.826Z,3.92
2022-09-12T09:08:24.567Z,4.83
2022-09-12T09:14:07.865Z,3.88
2022-09-12T09:19:18.664Z,4.88
2022-09-12T09:24:24.922Z,5.78
2022-09-12T09:29:45.506Z,5.85
2022-09-12T09:34:48.247Z,6.95
2022-09-12T09:40:02.047Z,9.45
2022-09-12T09:45:15.547Z,7.88
2022-09-12T09:50:17.843Z,7.07
2022-09-12T09:55:24.523Z,5.93
2022-09-12T10:00:34.670Z,7.10
2022-09-12T10:05:47.859Z,6.22
2022-09-12T10:16:03.792Z,5.57
2022-09-12T10:21:24.512Z,4.57
2022-09-12T10:26:28.069Z,7.57
2022-09-12T10:31:49.770Z,6.22
2022-09-12T10:36:55.605Z,5.50
2022-09-12T10:41:57.348Z,7.30
2022-09-12T10:47:18.554Z,7.70
2022-09-12T10:52:24.811Z,5.43
2022-09-12T10:57:57.417Z,5.63
2022-09-12T11:03:35.306Z,6.30
2022-09-12T11:08:55.539Z,4.47
2022-09-12T11:14:35.110Z,5.90
2022-09-12T11:19:46.500Z,6.45
2022-09-12T11:25:19.201Z,11.18
2022-09-12T11:30:20.991Z,5.53
2022-09-12T11:35:34.027Z,6.80
2022-09-12T11:40:47.992Z,7.10
2022-09-12T11:45:50.896Z,7.70
2022-09-12T11:50:53.329Z,4.88
2022-09-12T11:56:14.270Z,6.32
2022-09-12T12:01:31.647Z,7.85
2022-09-12T12:07:01.579Z,5.30
2022-09-12T12:12:08.092Z,6.25
2022-09-12T12:17:19.168Z,3.15
2022-09-12T12:22:24.143Z,4.63
2022-09-12T12:28:01.330Z,5.20
2022-09-12T12:33:10.173Z,3.08
2022-09-12T12:38:33.267Z,3.65
2022-09-12T12:43:34.953Z,4.57
2022-09-12T12:49:23.749Z,3.83
2022-09-12T12:54:40.290Z,4.60
2022-09-12T12:59:55.239Z,4.05
2022-09-12T13:04:59.750Z,4.95
2022-09-12T13:10:02.391Z,3.28
2022-09-12T13:15:24.989Z,4.07
2022-09-12T13:20:33.937Z,3.72
2022-09-12T13:25:37.047Z,3.50
2022-09-12T13:30:59.835Z,5.15
2022-09-12T13:36:37.319Z,5.22
2022-09-12T13:41:44.589Z,4.25
2022-09-12T13:46:47.103Z,3.40
2022-09-12T13:52:08.466Z,6.33
2022-09-12T13:57:34.588Z,5.13
2022-09-12T14:02:37.001Z,3.28
2022-09-12T14:08:02.218Z,5.25
2022-09-12T14:13:18.243Z,3.92
2022-09-12T14:18:28.899Z,3.63
2022-09-12T14:23:32.982Z,5.45
2022-09-12T14:28:36.158Z,3.97
2022-09-12T14:33:51.834Z,4.53
2022-09-12T14:38:57.717Z,3.42
2022-09-12T14:44:05.039Z,8.43
2022-09-12T14:49:34.981Z,3.20
2022-09-12T14:54:37.868Z,3.72
2022-09-12T14:59:40.718Z,4.80
2022-09-12T15:04:45.245Z,2.85
2022-09-12T15:09:47.494Z,4.50
2022-09-12T15:14:49.218Z,3.57
2022-09-12T15:19:50.881Z,4.25
2022-09-12T15:24:53.449Z,3.55
2022-09-12T15:29:55.472Z,3.67
2022-09-12T15:34:57.181Z,3.85
2022-09-12T15:39:58.878Z,3.70
2022-09-12T15:45:02.555Z,3.90
2022-09-12T15:50:05.172Z,3.55
2022-09-12T15:55:19.424Z,4.38
2022-09-12T16:00:21.861Z,3.80
2022-09-12T16:05:25.645Z,4.15
2022-09-12T16:10:31.162Z,5.20
2022-09-12T16:15:33.125Z,3.78
2022-09-12T16:20:35.297Z,4.90
2022-09-12T16:25:38.681Z,4.10
2022-09-12T16:30:40.387Z,3.72
2022-09-12T16:35:42.351Z,5.20
2022-09-12T16:40:44.021Z,4.85
2022-09-12T16:45:45.790Z,4.82
2022-09-12T16:51:00.823Z,3.67
2022-09-12T16:56:03.621Z,4.28
2022-09-12T17:01:06.967Z,4.43
2022-09-12T17:06:11.833Z,5.45
2022-09-12T17:11:16.729Z,6.40
2022-09-12T17:16:23.114Z,4.70
2022-09-12T17:21:25.017Z,3.83
2022-09-12T17:26:26.985Z,6.22
2022-09-12T17:31:28.991Z,5.38
2022-09-12T17:36:32.011Z,4.75
2022-09-12T17:41:33.780Z,5.57
2022-09-12T17:46:37.872Z,3.80
2022-09-12T17:51:40.341Z,4.80
2022-09-12T17:56:43.378Z,5.13
2022-09-12T18:02:04.066Z,6.70
2022-09-12T18:07:05.985Z,4.22
2022-09-12T18:12:08.868Z,4.57
2022-09-12T18:17:11.447Z,4.88
2022-09-12T18:22:13.135Z,4.70
2022-09-12T18:27:14.842Z,5.25
2022-09-12T18:32:16.544Z,5.60
2022-09-12T18:37:18.269Z,4.85
2022-09-12T18:42:19.930Z,7.50
2022-09-12T18:47:21.658Z,5.68
2022-09-12T18:52:23.407Z,4.68
2022-09-12T18:57:25.430Z,4.47
2022-09-12T19:02:29.987Z,5.05
2022-09-12T19:07:32.319Z,4.63
2022-09-12T19:12:33.997Z,4.63
2022-09-12T19:17:35.774Z,6.50
2022-09-12T19:22:37.445Z,5.82
2022-09-12T19:27:39.617Z,4.28
2022-09-12T19:32:41.338Z,6.45
2022-09-12T19:37:43.008Z,4.90
2022-09-12T19:42:44.690Z,8.02
2022-09-12T19:47:46.364Z,5.40
2022-09-12T19:52:48.082Z,6.05
2022-09-12T19:57:49.822Z,5.30
2022-09-12T20:02:52.359Z,5.85
2022-09-12T20:07:54.085Z,4.78
2022-09-12T20:12:55.787Z,4.85
2022-09-12T20:17:57.907Z,5.13
2022-09-12T20:22:59.603Z,5.82
2022-09-12T20:28:01.318Z,5.95
2022-09-12T20:33:03.172Z,4.95
2022-09-12T20:38:04.886Z,6.43
2022-09-12T20:43:06.559Z,4.80
2022-09-12T20:48:08.267Z,4.90
2022-09-12T20:53:09.997Z,6.97
2022-09-12T20:58:11.669Z,4.80
2022-09-12T21:03:14.642Z,5.00
2022-09-12T21:08:16.694Z,5.40
2022-09-12T21:13:18.399Z,6.32
2022-09-12T21:18:20.106Z,6.00
2022-09-12T21:23:23.155Z,5.30
2022-09-12T21:28:25.066Z,4.78
2022-09-12T21:33:27.648Z,5.70
2022-09-12T21:38:30.671Z,6.50
2022-09-12T21:43:32.396Z,6.47
2022-09-12T21:48:34.599Z,7.15
2022-09-12T21:53:37.352Z,6.38
2022-09-12T21:58:39.240Z,8.55
2022-09-12T22:03:43.028Z,6.95
2022-09-12T22:08:44.750Z,6.40
2022-09-12T22:13:46.486Z,6.88
2022-09-12T22:18:49.051Z,6.75
2022-09-12T22:24:10.154Z,8.90
2022-09-12T22:29:16.042Z,6.95
2022-09-12T22:34:17.773Z,6.40
2022-09-12T22:39:19.943Z,7.50
2022-09-12T22:44:21.646Z,7.78
2022-09-12T22:49:23.559Z,7.47
2022-09-12T22:54:25.276Z,5.60
2022-09-12T22:59:26.985Z,6.15
2022-09-12T23:04:28.742Z,6.90
2022-09-12T23:09:35.123Z,5.75
2022-09-12T23:14:37.177Z,5.85
2022-09-12T23:19:38.870Z,7.07
2022-09-12T23:24:40.562Z,6.10
2022-09-12T23:29:42.259Z,5.10
2022-09-12T23:34:44.790Z,6.80
2022-09-12T23:39:46.510Z,6.50
2022-09-12T23:44:48.235Z,6.82
2022-09-12T23:49:49.926Z,8.38
2022-09-12T23:54:51.604Z,6.55
2022-09-12T23:59:53.727Z,5.75
